GJS4426 KEWR-KROC
Flight info
| Callsign | GJS4426 |
|---|---|
| Flight time | 0h 46m |
| Altitude | 30000 |
| Route | NEION Q232 CORDS GIBBE |
| Aircraft | CRJ7/M-SDFGIRWY/S |
Departure
| Time | 2026-05-09 15:15 |
|---|---|
| Airport | Newark Liberty International Airport (KEWR) |
Arrival
| Time | 2026-05-09 16:01 |
|---|---|
| Airport | Frederick Douglass Greater Rochester International Airport (KROC) |
| Time | Latitude | Longitude | Altitude | Speed | Heading |
|---|---|---|---|---|---|
| 2026-05-09 14:57 | 40.69629 | -74.17572 | 20 ft | 0 kts | 311° |
| 2026-05-09 15:03 | 40.69628 | -74.17571 | 18 ft | 2 kts | 311° |
| 2026-05-09 15:04 | 40.69621 | -74.17560 | 18 ft | 2 kts | 311° |
| 2026-05-09 15:04 | 40.69610 | -74.17543 | 18 ft | 2 kts | 313° |
| 2026-05-09 15:06 | 40.69586 | -74.17528 | 18 ft | 2 kts | 41° |
| 2026-05-09 15:06 | 40.69595 | -74.17517 | 21 ft | 0 kts | 41° |
| 2026-05-09 15:07 | 40.69601 | -74.17510 | 18 ft | 2 kts | 41° |
| 2026-05-09 15:07 | 40.69616 | -74.17492 | 18 ft | 4 kts | 45° |
| 2026-05-09 15:07 | 40.69638 | -74.17466 | 19 ft | 5 kts | 40° |
| 2026-05-09 15:07 | 40.69669 | -74.17431 | 18 ft | 7 kts | 40° |
| 2026-05-09 15:08 | 40.69707 | -74.17389 | 19 ft | 7 kts | 40° |
| 2026-05-09 15:08 | 40.69795 | -74.17291 | 20 ft | 9 kts | 43° |
| 2026-05-09 15:08 | 40.69846 | -74.17229 | 18 ft | 9 kts | 24° |
| 2026-05-09 15:09 | 40.69882 | -74.17253 | 18 ft | 6 kts | 306° |
| 2026-05-09 15:10 | 40.70111 | -74.17168 | 18 ft | 16 kts | 95° |
| 2026-05-09 15:11 | 40.70103 | -74.17051 | 19 ft | 11 kts | 95° |
| 2026-05-09 15:11 | 40.70096 | -74.16931 | 18 ft | 15 kts | 95° |
| 2026-05-09 15:11 | 40.70085 | -74.16785 | 18 ft | 16 kts | 95° |
| 2026-05-09 15:11 | 40.70077 | -74.16654 | 18 ft | 14 kts | 94° |
| 2026-05-09 15:12 | 40.70068 | -74.16528 | 17 ft | 12 kts | 95° |
| 2026-05-09 15:12 | 40.70064 | -74.16468 | 17 ft | 0 kts | 95° |
| 2026-05-09 15:13 | 40.70064 | -74.16462 | 16 ft | 2 kts | 95° |
| 2026-05-09 15:13 | 40.70061 | -74.16421 | 16 ft | 7 kts | 95° |
| 2026-05-09 15:13 | 40.70041 | -74.16361 | 15 ft | 8 kts | 163° |
| 2026-05-09 15:14 | 40.70002 | -74.16378 | 15 ft | 7 kts | 204° |
| 2026-05-09 15:14 | 40.69850 | -74.16477 | 16 ft | 57 kts | 205° |
| 2026-05-09 15:14 | 40.69244 | -74.16865 | 19 ft | 133 kts | 206° |
| 2026-05-09 15:14 | 40.68301 | -74.17495 | 368 ft | 167 kts | 206° |
| 2026-05-09 15:15 | 40.67225 | -74.18267 | 1177 ft | 169 kts | 210° |
| 2026-05-09 15:15 | 40.66224 | -74.18848 | 2540 ft | 153 kts | 206° |
| 2026-05-09 15:15 | 40.65138 | -74.19372 | 2985 ft | 187 kts | 205° |
| 2026-05-09 15:15 | 40.63770 | -74.20053 | 3054 ft | 232 kts | 204° |
| 2026-05-09 15:16 | 40.62243 | -74.20662 | 2986 ft | 222 kts | 199° |
| 2026-05-09 15:16 | 40.61028 | -74.21623 | 2956 ft | 203 kts | 236° |
| 2026-05-09 15:16 | 40.60784 | -74.23400 | 3000 ft | 214 kts | 282° |
| 2026-05-09 15:16 | 40.61705 | -74.25099 | 3503 ft | 245 kts | 313° |
| 2026-05-09 15:17 | 40.63059 | -74.26578 | 4228 ft | 260 kts | 315° |
| 2026-05-09 15:17 | 40.64522 | -74.28055 | 5146 ft | 268 kts | 317° |
| 2026-05-09 15:17 | 40.66051 | -74.29523 | 6024 ft | 275 kts | 317° |
| 2026-05-09 15:17 | 40.67628 | -74.31003 | 6835 ft | 281 kts | 317° |
| 2026-05-09 15:18 | 40.69298 | -74.32398 | 7639 ft | 292 kts | 330° |
| 2026-05-09 15:18 | 40.71262 | -74.33249 | 8452 ft | 300 kts | 337° |
| 2026-05-09 15:18 | 40.73280 | -74.34048 | 9248 ft | 305 kts | 337° |
| 2026-05-09 15:18 | 40.75323 | -74.34874 | 10019 ft | 307 kts | 334° |
| 2026-05-09 15:19 | 40.77397 | -74.35909 | 10150 ft | 335 kts | 329° |
| 2026-05-09 15:19 | 40.79666 | -74.37133 | 10107 ft | 368 kts | 332° |
| 2026-05-09 15:19 | 40.82098 | -74.38377 | 10767 ft | 371 kts | 334° |
| 2026-05-09 15:19 | 40.84497 | -74.39526 | 11871 ft | 364 kts | 334° |
| 2026-05-09 15:20 | 40.86887 | -74.40644 | 12687 ft | 365 kts | 334° |
| 2026-05-09 15:20 | 40.91665 | -74.42886 | 14164 ft | 368 kts | 333° |
| 2026-05-09 15:20 | 40.94085 | -74.44058 | 14760 ft | 373 kts | 333° |
| 2026-05-09 15:21 | 40.96527 | -74.45238 | 15348 ft | 375 kts | 333° |
| 2026-05-09 15:21 | 40.98989 | -74.46433 | 15947 ft | 378 kts | 333° |
| 2026-05-09 15:21 | 41.01472 | -74.47637 | 16548 ft | 381 kts | 333° |
| 2026-05-09 15:21 | 41.03976 | -74.48853 | 17148 ft | 384 kts | 333° |
| 2026-05-09 15:22 | 41.06493 | -74.50076 | 17705 ft | 387 kts | 333° |
| 2026-05-09 15:22 | 41.09031 | -74.51310 | 18247 ft | 390 kts | 333° |
| 2026-05-09 15:22 | 41.11581 | -74.52554 | 18730 ft | 392 kts | 333° |
| 2026-05-09 15:22 | 41.14147 | -74.53806 | 19190 ft | 395 kts | 332° |
| 2026-05-09 15:23 | 41.16739 | -74.55072 | 19608 ft | 399 kts | 333° |
| 2026-05-09 15:23 | 41.19354 | -74.56348 | 20057 ft | 401 kts | 333° |
| 2026-05-09 15:23 | 41.21980 | -74.57638 | 20493 ft | 402 kts | 330° |
| 2026-05-09 15:23 | 41.24282 | -74.59585 | 20879 ft | 385 kts | 308° |
| 2026-05-09 15:24 | 41.25895 | -74.62305 | 21323 ft | 378 kts | 298° |
| 2026-05-09 15:24 | 41.27401 | -74.65176 | 21719 ft | 380 kts | 298° |
| 2026-05-09 15:24 | 41.28962 | -74.68038 | 22141 ft | 383 kts | 301° |
| 2026-05-09 15:24 | 41.30614 | -74.70833 | 22551 ft | 386 kts | 302° |
| 2026-05-09 15:25 | 41.32317 | -74.73613 | 22949 ft | 389 kts | 302° |
| 2026-05-09 15:25 | 41.34047 | -74.76404 | 23330 ft | 390 kts | 302° |
| 2026-05-09 15:25 | 41.35773 | -74.79210 | 23664 ft | 392 kts | 302° |
| 2026-05-09 15:26 | 41.39222 | -74.84860 | 24288 ft | 394 kts | 302° |
| 2026-05-09 15:26 | 41.40956 | -74.87695 | 24574 ft | 396 kts | 302° |
| 2026-05-09 15:26 | 41.42697 | -74.90547 | 24842 ft | 397 kts | 302° |
| 2026-05-09 15:26 | 41.44446 | -74.93405 | 25105 ft | 399 kts | 302° |
| 2026-05-09 15:27 | 41.46199 | -74.96281 | 25377 ft | 400 kts | 302° |
| 2026-05-09 15:27 | 41.47934 | -74.99137 | 25647 ft | 401 kts | 302° |
| 2026-05-09 15:27 | 41.49694 | -75.02024 | 25926 ft | 401 kts | 302° |
| 2026-05-09 15:27 | 41.51444 | -75.04917 | 26186 ft | 402 kts | 302° |
| 2026-05-09 15:28 | 41.53220 | -75.07842 | 26375 ft | 405 kts | 302° |
| 2026-05-09 15:28 | 41.54995 | -75.10772 | 26600 ft | 406 kts | 302° |
| 2026-05-09 15:28 | 41.56773 | -75.13715 | 26843 ft | 407 kts | 301° |
| 2026-05-09 15:28 | 41.58500 | -75.16711 | 27064 ft | 406 kts | 299° |
| 2026-05-09 15:29 | 41.60146 | -75.19781 | 27295 ft | 406 kts | 298° |
| 2026-05-09 15:29 | 41.61761 | -75.22877 | 27488 ft | 407 kts | 298° |
| 2026-05-09 15:29 | 41.63396 | -75.25974 | 27708 ft | 408 kts | 298° |
| 2026-05-09 15:29 | 41.65041 | -75.29077 | 27880 ft | 409 kts | 298° |
| 2026-05-09 15:30 | 41.66685 | -75.32182 | 28062 ft | 410 kts | 298° |
| 2026-05-09 15:30 | 41.68336 | -75.35295 | 28240 ft | 411 kts | 298° |
| 2026-05-09 15:30 | 41.69979 | -75.38405 | 28418 ft | 411 kts | 298° |
| 2026-05-09 15:30 | 41.71632 | -75.41542 | 28602 ft | 412 kts | 298° |
| 2026-05-09 15:31 | 41.74930 | -75.47818 | 28842 ft | 416 kts | 297° |
| 2026-05-09 15:31 | 41.76601 | -75.50998 | 28988 ft | 417 kts | 297° |
| 2026-05-09 15:31 | 41.78275 | -75.54193 | 29133 ft | 417 kts | 297° |
| 2026-05-09 15:32 | 41.79946 | -75.57379 | 29291 ft | 418 kts | 297° |
| 2026-05-09 15:32 | 41.81620 | -75.60573 | 29440 ft | 419 kts | 297° |
| 2026-05-09 15:32 | 41.83292 | -75.63777 | 29585 ft | 420 kts | 297° |
| 2026-05-09 15:32 | 41.84968 | -75.66986 | 29719 ft | 420 kts | 297° |
| 2026-05-09 15:33 | 41.86622 | -75.70153 | 29830 ft | 421 kts | 297° |
| 2026-05-09 15:33 | 41.88303 | -75.73377 | 29889 ft | 423 kts | 297° |
| 2026-05-09 15:33 | 41.91666 | -75.79831 | 29920 ft | 414 kts | 297° |
| 2026-05-09 15:34 | 41.94877 | -75.86013 | 29900 ft | 395 kts | 296° |
| 2026-05-09 15:34 | 41.97957 | -75.91950 | 29892 ft | 380 kts | 296° |
| 2026-05-09 15:35 | 42.00932 | -75.97699 | 29668 ft | 372 kts | 296° |
| 2026-05-09 15:35 | 42.02410 | -76.00565 | 29403 ft | 373 kts | 296° |
| 2026-05-09 15:35 | 42.03895 | -76.03439 | 29162 ft | 374 kts | 296° |
| 2026-05-09 15:36 | 42.05379 | -76.06319 | 28925 ft | 374 kts | 296° |
| 2026-05-09 15:36 | 42.06862 | -76.09201 | 28694 ft | 375 kts | 296° |
| 2026-05-09 15:36 | 42.08326 | -76.12047 | 28447 ft | 375 kts | 296° |
| 2026-05-09 15:36 | 42.09815 | -76.14942 | 28230 ft | 376 kts | 296° |
| 2026-05-09 15:37 | 42.11301 | -76.17850 | 27992 ft | 377 kts | 296° |
| 2026-05-09 15:37 | 42.12794 | -76.20760 | 27763 ft | 378 kts | 296° |
| 2026-05-09 15:37 | 42.14282 | -76.23673 | 27519 ft | 378 kts | 296° |
| 2026-05-09 15:37 | 42.15772 | -76.26592 | 27310 ft | 378 kts | 296° |
| 2026-05-09 15:38 | 42.17267 | -76.29519 | 27099 ft | 379 kts | 296° |
| 2026-05-09 15:38 | 42.18768 | -76.32446 | 26872 ft | 380 kts | 297° |
| 2026-05-09 15:38 | 42.20270 | -76.35377 | 26687 ft | 380 kts | 296° |
| 2026-05-09 15:38 | 42.21767 | -76.38324 | 26473 ft | 381 kts | 296° |
| 2026-05-09 15:39 | 42.23260 | -76.41264 | 26246 ft | 377 kts | 296° |
| 2026-05-09 15:39 | 42.24734 | -76.44146 | 26004 ft | 369 kts | 296° |
| 2026-05-09 15:39 | 42.26175 | -76.46974 | 25779 ft | 363 kts | 296° |
| 2026-05-09 15:39 | 42.27595 | -76.49768 | 25546 ft | 358 kts | 296° |
| 2026-05-09 15:40 | 42.28992 | -76.52520 | 25322 ft | 353 kts | 296° |
| 2026-05-09 15:40 | 42.30366 | -76.55235 | 25093 ft | 348 kts | 296° |
| 2026-05-09 15:40 | 42.31730 | -76.57919 | 24871 ft | 345 kts | 296° |
| 2026-05-09 15:40 | 42.33077 | -76.60578 | 24635 ft | 342 kts | 296° |
| 2026-05-09 15:41 | 42.34398 | -76.63190 | 24412 ft | 339 kts | 296° |
| 2026-05-09 15:41 | 42.35723 | -76.65808 | 24184 ft | 336 kts | 296° |
| 2026-05-09 15:41 | 42.37024 | -76.68420 | 23961 ft | 334 kts | 296° |
| 2026-05-09 15:41 | 42.38317 | -76.71021 | 23757 ft | 333 kts | 296° |
| 2026-05-09 15:42 | 42.39609 | -76.73623 | 23560 ft | 333 kts | 296° |
| 2026-05-09 15:42 | 42.40897 | -76.76228 | 23334 ft | 333 kts | 296° |
| 2026-05-09 15:42 | 42.42185 | -76.78830 | 23097 ft | 333 kts | 296° |
| 2026-05-09 15:42 | 42.43487 | -76.81431 | 22854 ft | 334 kts | 297° |
| 2026-05-09 15:43 | 42.44792 | -76.84034 | 22600 ft | 334 kts | 297° |
| 2026-05-09 15:43 | 42.46104 | -76.86650 | 22289 ft | 337 kts | 297° |
| 2026-05-09 15:43 | 42.47423 | -76.89274 | 21991 ft | 337 kts | 298° |
| 2026-05-09 15:43 | 42.48739 | -76.91912 | 21667 ft | 338 kts | 298° |
| 2026-05-09 15:44 | 42.50076 | -76.94537 | 21307 ft | 340 kts | 299° |
| 2026-05-09 15:44 | 42.51425 | -76.97200 | 20850 ft | 345 kts | 300° |
| 2026-05-09 15:44 | 42.53151 | -76.99545 | 20387 ft | 360 kts | 317° |
| 2026-05-09 15:44 | 42.55204 | -77.01523 | 19946 ft | 365 kts | 320° |
| 2026-05-09 15:45 | 42.57418 | -77.03266 | 19506 ft | 367 kts | 327° |
| 2026-05-09 15:45 | 42.59714 | -77.04754 | 19069 ft | 364 kts | 329° |
| 2026-05-09 15:45 | 42.62006 | -77.06161 | 18622 ft | 360 kts | 330° |
| 2026-05-09 15:45 | 42.64245 | -77.07540 | 18188 ft | 356 kts | 329° |
| 2026-05-09 15:46 | 42.66474 | -77.08972 | 17670 ft | 353 kts | 329° |
| 2026-05-09 15:46 | 42.68682 | -77.10420 | 17152 ft | 351 kts | 328° |
| 2026-05-09 15:46 | 42.70873 | -77.11861 | 16687 ft | 349 kts | 328° |
| 2026-05-09 15:46 | 42.73051 | -77.13296 | 16189 ft | 347 kts | 328° |
| 2026-05-09 15:47 | 42.74488 | -77.14248 | 15891 ft | 346 kts | 328° |
| 2026-05-09 15:47 | 42.76649 | -77.15673 | 15424 ft | 344 kts | 329° |
| 2026-05-09 15:47 | 42.78796 | -77.17093 | 14953 ft | 343 kts | 329° |
| 2026-05-09 15:47 | 42.80935 | -77.18507 | 14478 ft | 341 kts | 329° |
| 2026-05-09 15:48 | 42.83033 | -77.19894 | 13995 ft | 329 kts | 329° |
| 2026-05-09 15:48 | 42.85057 | -77.21234 | 13512 ft | 319 kts | 329° |
| 2026-05-09 15:48 | 42.87027 | -77.22541 | 12986 ft | 311 kts | 329° |
| 2026-05-09 15:48 | 42.88956 | -77.23826 | 12494 ft | 307 kts | 329° |
| 2026-05-09 15:49 | 42.90849 | -77.25079 | 11986 ft | 296 kts | 329° |
| 2026-05-09 15:49 | 42.92674 | -77.26290 | 11501 ft | 289 kts | 329° |
| 2026-05-09 15:49 | 42.94459 | -77.27477 | 11034 ft | 289 kts | 330° |
| 2026-05-09 15:49 | 42.96268 | -77.28677 | 10576 ft | 289 kts | 330° |
| 2026-05-09 15:50 | 42.98065 | -77.29870 | 10125 ft | 285 kts | 330° |
| 2026-05-09 15:50 | 42.99836 | -77.31048 | 9714 ft | 282 kts | 330° |
| 2026-05-09 15:50 | 43.01583 | -77.32224 | 9246 ft | 278 kts | 330° |
| 2026-05-09 15:50 | 43.03307 | -77.33401 | 8746 ft | 275 kts | 330° |
| 2026-05-09 15:51 | 43.05019 | -77.34570 | 8216 ft | 275 kts | 330° |
| 2026-05-09 15:51 | 43.06731 | -77.35726 | 7718 ft | 274 kts | 330° |
| 2026-05-09 15:51 | 43.08438 | -77.36870 | 7232 ft | 273 kts | 331° |
| 2026-05-09 15:51 | 43.10141 | -77.38002 | 6747 ft | 272 kts | 331° |
| 2026-05-09 15:52 | 43.13523 | -77.40255 | 5791 ft | 268 kts | 331° |
| 2026-05-09 15:52 | 43.15188 | -77.41372 | 5359 ft | 264 kts | 332° |
| 2026-05-09 15:52 | 43.16824 | -77.42467 | 4968 ft | 259 kts | 332° |
| 2026-05-09 15:53 | 43.18437 | -77.43544 | 4573 ft | 255 kts | 332° |
| 2026-05-09 15:53 | 43.20019 | -77.44602 | 4169 ft | 252 kts | 332° |
| 2026-05-09 15:53 | 43.21568 | -77.45642 | 3816 ft | 249 kts | 332° |
| 2026-05-09 15:53 | 43.23131 | -77.46717 | 3600 ft | 247 kts | 332° |
| 2026-05-09 15:54 | 43.24671 | -77.47740 | 3413 ft | 246 kts | 333° |
| 2026-05-09 15:54 | 43.26061 | -77.49010 | 3159 ft | 242 kts | 320° |
| 2026-05-09 15:54 | 43.27465 | -77.50203 | 2825 ft | 233 kts | 329° |
| 2026-05-09 15:54 | 43.28855 | -77.51222 | 2621 ft | 221 kts | 330° |
| 2026-05-09 15:55 | 43.30136 | -77.52264 | 2529 ft | 205 kts | 314° |
| 2026-05-09 15:55 | 43.30759 | -77.53874 | 2500 ft | 185 kts | 273° |
| 2026-05-09 15:55 | 43.30472 | -77.55405 | 2484 ft | 155 kts | 230° |
| 2026-05-09 15:55 | 43.29607 | -77.56045 | 2458 ft | 137 kts | 192° |
| 2026-05-09 15:56 | 43.28684 | -77.56358 | 2475 ft | 137 kts | 193° |
| 2026-05-09 15:56 | 43.27754 | -77.56679 | 2539 ft | 141 kts | 194° |
| 2026-05-09 15:56 | 43.26788 | -77.57056 | 2597 ft | 146 kts | 197° |
| 2026-05-09 15:56 | 43.25842 | -77.57466 | 2662 ft | 140 kts | 199° |
| 2026-05-09 15:57 | 43.24930 | -77.57938 | 2645 ft | 142 kts | 196° |
| 2026-05-09 15:57 | 43.23992 | -77.58365 | 2672 ft | 142 kts | 198° |
| 2026-05-09 15:57 | 43.23072 | -77.58927 | 2670 ft | 144 kts | 207° |
| 2026-05-09 15:57 | 43.22210 | -77.59619 | 2733 ft | 143 kts | 209° |
| 2026-05-09 15:58 | 43.21337 | -77.60243 | 2757 ft | 142 kts | 206° |
| 2026-05-09 15:58 | 43.20404 | -77.60862 | 2699 ft | 149 kts | 205° |
| 2026-05-09 15:58 | 43.19491 | -77.61460 | 2522 ft | 147 kts | 206° |
| 2026-05-09 15:58 | 43.18642 | -77.62162 | 2462 ft | 143 kts | 218° |
| 2026-05-09 15:59 | 43.17780 | -77.62868 | 2185 ft | 146 kts | 210° |
| 2026-05-09 15:59 | 43.16928 | -77.63508 | 1883 ft | 135 kts | 207° |
| 2026-05-09 15:59 | 43.16151 | -77.64132 | 1477 ft | 126 kts | 212° |
| 2026-05-09 15:59 | 43.15386 | -77.64783 | 1256 ft | 136 kts | 212° |
| 2026-05-09 16:00 | 43.14570 | -77.65486 | 1023 ft | 136 kts | 213° |
| 2026-05-09 16:00 | 43.14042 | -77.65940 | 890 ft | 133 kts | 213° |
| 2026-05-09 16:00 | 43.13006 | -77.66809 | 671 ft | 129 kts | 213° |
| 2026-05-09 16:00 | 43.12251 | -77.67460 | 565 ft | 128 kts | 213° |
| 2026-05-09 16:01 | 43.11593 | -77.68013 | 568 ft | 85 kts | 211° |
| 2026-05-09 16:01 | 43.11310 | -77.68250 | 568 ft | 26 kts | 211° |
| 2026-05-09 16:01 | 43.11179 | -77.68349 | 563 ft | 17 kts | 197° |
| 2026-05-09 16:01 | 43.11088 | -77.68343 | 566 ft | 10 kts | 136° |
| 2026-05-09 16:02 | 43.11090 | -77.68264 | 568 ft | 10 kts | 45° |
| 2026-05-09 16:02 | 43.11249 | -77.68124 | 562 ft | 15 kts | 32° |
| 2026-05-09 16:02 | 43.11344 | -77.68044 | 567 ft | 18 kts | 31° |
| 2026-05-09 16:03 | 43.11463 | -77.67945 | 562 ft | 21 kts | 31° |
| 2026-05-09 16:03 | 43.11591 | -77.67837 | 565 ft | 19 kts | 32° |
| 2026-05-09 16:03 | 43.11700 | -77.67745 | 564 ft | 19 kts | 31° |
| 2026-05-09 16:03 | 43.11830 | -77.67638 | 567 ft | 24 kts | 31° |
| 2026-05-09 16:04 | 43.11969 | -77.67519 | 560 ft | 21 kts | 31° |
| 2026-05-09 16:04 | 43.12104 | -77.67406 | 560 ft | 21 kts | 32° |
| 2026-05-09 16:04 | 43.12205 | -77.67320 | 561 ft | 19 kts | 31° |
| 2026-05-09 16:04 | 43.12329 | -77.67217 | 563 ft | 22 kts | 31° |
| 2026-05-09 16:05 | 43.12472 | -77.67096 | 561 ft | 27 kts | 33° |
| 2026-05-09 16:05 | 43.12600 | -77.66968 | 563 ft | 15 kts | 65° |
| 2026-05-09 16:05 | 43.12596 | -77.66826 | 564 ft | 17 kts | 90° |
| 2026-05-09 16:05 | 43.12598 | -77.66770 | 563 ft | 0 kts | 86° |